createdAt,value
2018-09-23T00:00:58.474Z,12.47
2018-09-23T00:01:58.493Z,12.53
2018-09-23T00:02:58.512Z,12.53
2018-09-23T00:03:58.531Z,12.57
2018-09-23T00:04:58.555Z,12.49
2018-09-23T00:05:58.569Z,12.53
2018-09-23T00:06:58.590Z,12.54
2018-09-23T00:07:58.644Z,12.60
2018-09-23T00:08:58.629Z,12.50
2018-09-23T00:09:58.648Z,12.61
2018-09-23T00:10:58.669Z,12.54
2018-09-23T00:11:58.687Z,12.62
2018-09-23T00:12:58.703Z,12.53
2018-09-23T00:13:58.726Z,12.54
2018-09-23T00:14:58.743Z,12.49
2018-09-23T00:15:58.763Z,12.47
2018-09-23T00:16:58.782Z,12.54
2018-09-23T00:17:58.801Z,12.37
2018-09-23T00:18:58.821Z,12.40
2018-09-23T00:19:58.844Z,12.39
2018-09-23T00:20:58.856Z,12.43
2018-09-23T00:21:58.878Z,12.39
2018-09-23T00:22:58.899Z,12.29
2018-09-23T00:23:58.915Z,12.36
2018-09-23T00:24:58.935Z,12.35
2018-09-23T00:25:58.986Z,12.39
2018-09-23T00:26:58.972Z,12.35
2018-09-23T00:27:58.991Z,12.36
2018-09-23T00:28:59.010Z,12.31
2018-09-23T00:29:59.029Z,12.31
2018-09-23T00:30:59.049Z,12.37
2018-09-23T00:31:59.068Z,12.37
2018-09-23T00:32:59.086Z,12.39
2018-09-23T00:33:59.105Z,12.37
2018-09-23T00:34:59.124Z,12.37
2018-09-23T00:35:59.144Z,12.39
2018-09-23T00:36:59.162Z,12.37
2018-09-23T00:37:59.181Z,12.40
2018-09-23T00:38:59.202Z,12.42
2018-09-23T00:39:59.221Z,12.37
2018-09-23T00:40:59.241Z,12.40
2018-09-23T00:41:59.260Z,12.39
2018-09-23T00:42:59.279Z,12.39
2018-09-23T00:43:59.296Z,12.37
2018-09-23T00:44:59.315Z,12.47
2018-09-23T00:45:59.336Z,12.40
2018-09-23T00:46:59.355Z,12.37
2018-09-23T00:47:59.373Z,12.42
2018-09-23T00:48:59.391Z,12.36
2018-09-23T00:49:59.413Z,12.40
2018-09-23T00:50:59.432Z,12.22
2018-09-23T00:51:59.451Z,12.27
2018-09-23T00:52:59.468Z,12.32
2018-09-23T00:53:59.489Z,12.24
2018-09-23T00:54:59.507Z,12.24
2018-09-23T00:55:59.526Z,12.32
2018-09-23T00:56:59.546Z,12.24
2018-09-23T00:57:59.565Z,12.25
2018-09-23T00:58:59.585Z,12.25
2018-09-23T00:59:59.604Z,12.22
2018-09-23T01:00:59.619Z,12.28
2018-09-23T01:01:59.639Z,12.29
2018-09-23T01:02:59.657Z,12.22
2018-09-23T01:03:59.679Z,12.29
2018-09-23T01:04:59.695Z,12.28
2018-09-23T01:05:59.717Z,12.21
2018-09-23T01:06:59.734Z,12.29
2018-09-23T01:07:59.753Z,12.25
2018-09-23T01:08:59.774Z,12.39
2018-09-23T01:09:59.792Z,12.36
2018-09-23T01:10:59.810Z,12.35
2018-09-23T01:11:59.830Z,12.42
2018-09-23T01:12:59.851Z,12.43
2018-09-23T01:13:59.870Z,12.37
2018-09-23T01:14:59.889Z,12.37
2018-09-23T01:15:59.908Z,12.32
2018-09-23T01:16:59.924Z,12.39
2018-09-23T01:17:59.946Z,12.37
2018-09-23T01:18:59.967Z,12.40
2018-09-23T01:19:59.984Z,12.25
2018-09-23T01:21:00.000Z,12.27
2018-09-23T01:22:00.026Z,12.10
2018-09-23T01:23:00.042Z,12.18
2018-09-23T01:24:00.063Z,12.21
2018-09-23T01:25:00.077Z,12.27
2018-09-23T01:26:00.099Z,12.31
2018-09-23T01:27:00.118Z,12.28
2018-09-23T01:28:00.137Z,12.25
2018-09-23T01:29:00.159Z,12.22
2018-09-23T01:30:00.172Z,12.27
2018-09-23T01:31:00.194Z,12.25
2018-09-23T01:32:00.213Z,12.29
2018-09-23T01:33:00.231Z,12.20
2018-09-23T01:34:00.252Z,12.20
2018-09-23T01:35:00.473Z,12.25
2018-09-23T01:36:00.291Z,12.20
2018-09-23T01:37:00.311Z,12.15
2018-09-23T01:38:00.327Z,12.17
2018-09-23T01:39:00.347Z,12.13
2018-09-23T01:40:00.365Z,12.15
2018-09-23T01:41:00.384Z,12.15
2018-09-23T01:42:00.402Z,12.12
2018-09-23T01:43:00.422Z,12.12
2018-09-23T01:44:00.442Z,12.06
2018-09-23T01:45:00.460Z,12.09
2018-09-23T01:46:00.477Z,12.12
2018-09-23T01:47:00.496Z,12.09
2018-09-23T01:48:00.516Z,12.09
2018-09-23T01:49:00.534Z,12.09
2018-09-23T01:50:00.553Z,12.20
2018-09-23T01:51:00.573Z,12.07
2018-09-23T01:52:00.592Z,12.10
2018-09-23T01:53:00.611Z,12.04
2018-09-23T01:54:00.629Z,12.12
2018-09-23T01:55:00.649Z,12.15
2018-09-23T01:56:00.666Z,12.12
2018-09-23T01:57:00.687Z,12.15
2018-09-23T01:58:00.703Z,12.21
2018-09-23T01:59:00.725Z,12.22
2018-09-23T02:00:00.742Z,12.25
2018-09-23T02:01:00.762Z,12.21
2018-09-23T02:02:00.780Z,12.22
2018-09-23T02:03:00.800Z,12.25
2018-09-23T02:04:00.820Z,12.25
2018-09-23T02:05:00.836Z,12.28
2018-09-23T02:06:00.857Z,12.32
2018-09-23T02:07:00.874Z,12.29
2018-09-23T02:08:00.930Z,12.22
2018-09-23T02:09:00.914Z,12.22
2018-09-23T02:10:00.931Z,12.24
2018-09-23T02:11:00.953Z,12.29
2018-09-23T02:12:00.974Z,12.22
2018-09-23T02:13:00.989Z,12.29
2018-09-23T02:14:01.006Z,12.32
2018-09-23T02:15:01.027Z,12.25
2018-09-23T02:16:01.047Z,12.25
2018-09-23T02:17:01.065Z,12.36
2018-09-23T02:18:01.085Z,12.27
2018-09-23T02:19:01.104Z,12.25
2018-09-23T02:20:01.122Z,12.29
2018-09-23T02:21:01.142Z,12.31
2018-09-23T02:22:01.169Z,12.42
2018-09-23T02:23:01.178Z,12.35
2018-09-23T02:24:01.206Z,12.40
2018-09-23T02:25:01.218Z,12.37
2018-09-23T02:26:01.238Z,12.22
2018-09-23T02:27:01.258Z,12.27
2018-09-23T02:28:01.279Z,12.29
2018-09-23T02:29:01.293Z,12.27
2018-09-23T02:30:01.313Z,12.39
2018-09-23T02:31:01.331Z,12.27
2018-09-23T02:32:01.352Z,12.28
2018-09-23T02:33:01.368Z,12.27
2018-09-23T02:34:01.390Z,12.31
2018-09-23T02:35:01.408Z,12.32
2018-09-23T02:36:01.428Z,12.25
2018-09-23T02:37:01.446Z,12.20
2018-09-23T02:38:01.466Z,12.21
2018-09-23T02:39:01.485Z,12.10
2018-09-23T02:40:01.505Z,12.12
2018-09-23T02:41:01.523Z,12.10
2018-09-23T02:42:01.541Z,12.13
2018-09-23T02:43:01.560Z,12.13
2018-09-23T02:44:01.581Z,12.12
2018-09-23T02:45:01.598Z,12.12
2018-09-23T02:46:01.618Z,12.04
2018-09-23T02:47:01.636Z,12.12
2018-09-23T02:48:01.656Z,12.12
2018-09-23T02:49:01.672Z,12.06
2018-09-23T02:50:01.694Z,12.13
2018-09-23T02:51:01.711Z,12.10
2018-09-23T02:52:01.729Z,11.97
2018-09-23T02:53:01.753Z,12.02
2018-09-23T02:54:01.767Z,12.09
2018-09-23T02:55:01.788Z,12.07
2018-09-23T02:56:01.807Z,11.99
2018-09-23T02:57:01.825Z,12.15
2018-09-23T02:58:01.845Z,12.07
2018-09-23T02:59:01.867Z,12.04
2018-09-23T03:00:01.881Z,12.07
2018-09-23T03:01:01.901Z,12.09
2018-09-23T03:02:01.919Z,12.03
2018-09-23T03:03:01.939Z,12.04
2018-09-23T03:04:01.993Z,12.13
2018-09-23T03:05:01.979Z,12.17
2018-09-23T03:06:01.995Z,12.09
2018-09-23T03:07:02.014Z,12.02
2018-09-23T03:08:02.031Z,12.09
2018-09-23T03:09:02.051Z,12.06
2018-09-23T03:10:02.068Z,12.03
2018-09-23T03:11:02.088Z,12.02
2018-09-23T03:12:02.107Z,12.00
2018-09-23T03:13:02.126Z,12.03
2018-09-23T03:14:02.147Z,12.12
2018-09-23T03:15:02.198Z,12.02
2018-09-23T03:16:02.184Z,12.04
2018-09-23T03:17:02.200Z,12.10
2018-09-23T03:18:02.220Z,12.03
2018-09-23T03:19:02.241Z,12.06
2018-09-23T03:20:02.258Z,12.17
2018-09-23T03:21:02.277Z,12.03
2018-09-23T03:22:02.295Z,12.10
2018-09-23T03:23:02.328Z,12.12
2018-09-23T03:24:02.332Z,12.09
2018-09-23T03:25:02.350Z,12.06
2018-09-23T03:26:02.368Z,12.06
2018-09-23T03:27:02.394Z,12.00
2018-09-23T03:28:02.408Z,12.00
2018-09-23T03:29:02.425Z,11.99
2018-09-23T03:30:02.507Z,11.87
2018-09-23T03:31:02.463Z,11.94
2018-09-23T03:32:02.489Z,11.90
2018-09-23T03:33:02.501Z,11.94
2018-09-23T03:34:02.520Z,11.95
2018-09-23T03:35:02.540Z,11.97
2018-09-23T03:36:02.557Z,12.04
2018-09-23T03:37:02.578Z,12.00
2018-09-23T03:38:02.595Z,11.91
2018-09-23T03:39:02.613Z,11.90
2018-09-23T03:40:02.636Z,11.87
2018-09-23T03:41:02.651Z,11.94
2018-09-23T03:42:02.671Z,11.91
2018-09-23T03:43:02.690Z,11.97
2018-09-23T03:44:02.705Z,11.94
2018-09-23T03:45:02.725Z,11.90
2018-09-23T03:46:02.745Z,12.00
2018-09-23T03:47:02.764Z,11.90
2018-09-23T03:48:02.783Z,11.99
2018-09-23T03:49:02.802Z,12.00
2018-09-23T03:50:02.819Z,12.03
2018-09-23T03:51:02.838Z,12.06
2018-09-23T03:52:02.858Z,12.00
2018-09-23T03:53:02.876Z,11.99
2018-09-23T03:54:02.898Z,12.09
2018-09-23T03:55:02.915Z,12.12
2018-09-23T03:56:02.934Z,12.07
2018-09-23T03:57:02.954Z,12.12
2018-09-23T03:58:03.038Z,12.04
2018-09-23T03:59:02.988Z,12.13
2018-09-23T04:00:03.042Z,12.12
2018-09-23T04:01:03.028Z,12.03
2018-09-23T04:02:03.046Z,12.12
2018-09-23T04:03:03.065Z,12.04
2018-09-23T04:04:03.083Z,12.09
2018-09-23T04:05:03.103Z,12.00
2018-09-23T04:06:03.122Z,12.04
2018-09-23T04:07:03.139Z,12.00
2018-09-23T04:08:03.158Z,11.99
2018-09-23T04:09:03.178Z,11.94
2018-09-23T04:10:03.197Z,11.94
2018-09-23T04:11:03.217Z,11.81
2018-09-23T04:12:03.297Z,11.90
2018-09-23T04:13:03.253Z,11.73
2018-09-23T04:14:03.271Z,11.81
2018-09-23T04:15:03.293Z,11.84
2018-09-23T04:16:03.311Z,11.94
2018-09-23T04:17:03.328Z,11.83
2018-09-23T04:18:03.346Z,11.88
2018-09-23T04:19:03.366Z,11.84
2018-09-23T04:20:03.386Z,11.88
2018-09-23T04:21:03.404Z,11.84
2018-09-23T04:22:03.421Z,11.78
2018-09-23T04:23:03.442Z,11.80
2018-09-23T04:24:03.461Z,11.87
2018-09-23T04:25:03.479Z,11.80
2018-09-23T04:26:03.531Z,11.86
2018-09-23T04:27:03.516Z,11.81
2018-09-23T04:28:03.534Z,11.78
2018-09-23T04:29:03.554Z,11.77
2018-09-23T04:30:03.571Z,11.68
2018-09-23T04:31:03.595Z,11.72
2018-09-23T04:32:03.613Z,11.72
2018-09-23T04:33:03.627Z,11.63
2018-09-23T04:34:03.649Z,11.70
2018-09-23T04:35:03.665Z,11.60
2018-09-23T04:36:03.684Z,11.73
2018-09-23T04:37:03.702Z,11.77
2018-09-23T04:38:03.729Z,11.75
2018-09-23T04:39:03.740Z,11.81
2018-09-23T04:40:03.760Z,11.86
2018-09-23T04:41:03.778Z,11.80
2018-09-23T04:42:03.798Z,11.78
2018-09-23T04:43:03.817Z,11.86
2018-09-23T04:44:03.837Z,11.81
2018-09-23T04:45:03.885Z,11.77
2018-09-23T04:46:03.876Z,11.84
2018-09-23T04:47:03.892Z,11.84
2018-09-23T04:48:03.911Z,11.94
2018-09-23T04:49:03.927Z,11.94
2018-09-23T04:50:03.946Z,11.87
2018-09-23T04:51:03.965Z,11.78
2018-09-23T04:52:03.984Z,11.87
2018-09-23T04:53:04.007Z,11.84
2018-09-23T04:54:04.058Z,11.84
2018-09-23T04:55:04.042Z,11.86
2018-09-23T04:56:04.062Z,11.81
2018-09-23T04:57:04.078Z,11.73
2018-09-23T04:58:04.098Z,11.80
2018-09-23T04:59:04.117Z,11.68
2018-09-23T05:00:04.136Z,11.77
2018-09-23T05:01:04.153Z,11.72
2018-09-23T05:02:04.171Z,11.75
2018-09-23T05:03:04.191Z,11.69
2018-09-23T05:04:04.212Z,11.68
2018-09-23T05:05:04.230Z,11.77
2018-09-23T05:06:04.249Z,11.75
2018-09-23T05:07:04.267Z,11.75
2018-09-23T05:08:04.288Z,11.77
2018-09-23T05:09:04.302Z,11.80
2018-09-23T05:10:04.321Z,11.68
2018-09-23T05:11:04.345Z,11.69
2018-09-23T05:12:04.359Z,11.81
2018-09-23T05:13:04.377Z,11.78
2018-09-23T05:14:04.404Z,11.78
2018-09-23T05:15:04.415Z,11.77
2018-09-23T05:16:04.434Z,11.81
2018-09-23T05:17:04.455Z,11.68
2018-09-23T05:18:04.476Z,11.69
2018-09-23T05:19:04.492Z,11.70
2018-09-23T05:20:04.542Z,11.66
2018-09-23T05:21:04.529Z,11.66
2018-09-23T05:22:04.550Z,11.66
2018-09-23T05:23:04.566Z,11.70
2018-09-23T05:24:04.585Z,11.66
2018-09-23T05:25:04.606Z,11.68
2018-09-23T05:26:04.621Z,11.78
2018-09-23T05:27:04.642Z,11.80
2018-09-23T05:28:04.696Z,11.70
2018-09-23T05:29:04.679Z,11.77
2018-09-23T05:30:04.698Z,11.80
2018-09-23T05:31:04.753Z,11.77
2018-09-23T05:32:04.736Z,11.80
2018-09-23T05:33:04.757Z,11.86
2018-09-23T05:34:04.773Z,11.81
2018-09-23T05:35:04.826Z,11.83
2018-09-23T05:36:04.810Z,11.83
2018-09-23T05:37:04.830Z,11.77
2018-09-23T05:38:04.850Z,11.80
2018-09-23T05:39:04.868Z,11.80
2018-09-23T05:40:04.885Z,11.80
2018-09-23T05:41:04.901Z,11.81
2018-09-23T05:42:04.929Z,11.83
2018-09-23T05:43:04.940Z,11.78
2018-09-23T05:44:05.033Z,11.75
2018-09-23T05:45:04.982Z,11.75
2018-09-23T05:46:04.999Z,11.80
2018-09-23T05:47:05.016Z,11.75
2018-09-23T05:48:05.035Z,11.80
2018-09-23T05:49:05.080Z,11.86
2018-09-23T05:50:05.079Z,11.80
2018-09-23T05:51:05.093Z,11.87
2018-09-23T05:52:05.108Z,11.86
2018-09-23T05:53:05.154Z,11.87
2018-09-23T05:54:05.353Z,11.88
2018-09-23T05:55:05.165Z,11.80
2018-09-23T05:56:05.185Z,11.81
2018-09-23T05:57:05.246Z,11.78
2018-09-23T05:58:05.222Z,11.83
2018-09-23T05:59:05.240Z,11.86
2018-09-23T06:00:05.257Z,11.83
2018-09-23T06:01:05.276Z,11.84
2018-09-23T06:02:05.297Z,11.83
2018-09-23T06:03:05.337Z,11.87
2018-09-23T06:04:05.334Z,11.81
2018-09-23T06:05:05.350Z,11.78
2018-09-23T06:06:05.369Z,11.78
2018-09-23T06:07:05.390Z,11.80
2018-09-23T06:08:05.409Z,11.75
2018-09-23T06:09:05.425Z,11.68
2018-09-23T06:10:05.446Z,11.77
2018-09-23T06:11:05.492Z,11.72
2018-09-23T06:12:05.482Z,11.73
2018-09-23T06:13:05.500Z,11.81
2018-09-23T06:14:05.521Z,11.86
2018-09-23T06:15:05.540Z,11.81
2018-09-23T06:16:05.557Z,11.86
2018-09-23T06:17:05.574Z,11.91
2018-09-23T06:18:05.595Z,11.91
2018-09-23T06:19:05.614Z,11.90
2018-09-23T06:20:05.635Z,11.91
2018-09-23T06:21:05.651Z,11.84
2018-09-23T06:22:05.668Z,11.84
2018-09-23T06:23:05.693Z,11.87
2018-09-23T06:24:05.709Z,11.90
2018-09-23T06:25:05.734Z,11.83
2018-09-23T06:26:05.743Z,11.94
2018-09-23T06:27:05.790Z,11.95
2018-09-23T06:28:05.781Z,12.02
2018-09-23T06:29:05.799Z,11.99
2018-09-23T06:30:05.818Z,11.99
2018-09-23T06:31:05.837Z,12.00
2018-09-23T06:32:05.856Z,11.95
2018-09-23T06:33:05.878Z,11.99
2018-09-23T06:34:05.897Z,11.90
2018-09-23T06:35:05.914Z,11.97
2018-09-23T06:36:05.933Z,11.94
2018-09-23T06:37:06.008Z,12.03
2018-09-23T06:38:05.971Z,11.99
2018-09-23T06:39:05.987Z,11.97
2018-09-23T06:40:06.008Z,12.00
2018-09-23T06:41:06.025Z,12.03
2018-09-23T06:42:06.046Z,12.02
2018-09-23T06:43:06.065Z,12.07
2018-09-23T06:44:06.117Z,12.03
2018-09-23T06:45:06.100Z,12.10
2018-09-23T06:46:06.120Z,12.06
2018-09-23T06:47:06.140Z,11.91
2018-09-23T06:48:06.159Z,11.91
2018-09-23T06:49:06.177Z,11.97
2018-09-23T06:50:06.196Z,11.94
2018-09-23T06:51:06.242Z,12.02
2018-09-23T06:52:06.234Z,11.91
2018-09-23T06:53:06.250Z,12.02
2018-09-23T06:54:06.269Z,12.02
2018-09-23T06:55:06.290Z,12.07
2018-09-23T06:56:06.310Z,12.02
2018-09-23T06:57:06.392Z,12.00
2018-09-23T06:58:06.344Z,12.04
2018-09-23T06:59:06.365Z,12.02
2018-09-23T07:00:06.385Z,12.10
2018-09-23T07:01:06.404Z,12.13
2018-09-23T07:02:06.422Z,12.09
2018-09-23T07:03:06.439Z,12.15
2018-09-23T07:04:06.460Z,12.20
2018-09-23T07:05:06.476Z,12.15
2018-09-23T07:06:06.501Z,12.12
2018-09-23T07:07:06.517Z,12.04
2018-09-23T07:08:06.536Z,12.12
2018-09-23T07:09:06.554Z,12.07
2018-09-23T07:10:06.572Z,12.09
2018-09-23T07:11:06.591Z,12.17
2018-09-23T07:12:06.609Z,12.18
2018-09-23T07:13:06.677Z,12.18
2018-09-23T07:14:06.646Z,12.02
2018-09-23T07:15:06.666Z,12.15
2018-09-23T07:16:06.685Z,12.02
2018-09-23T07:17:06.705Z,12.15
2018-09-23T07:18:06.784Z,12.15
2018-09-23T07:19:06.744Z,12.21
2018-09-23T07:20:06.763Z,12.13
2018-09-23T07:21:06.782Z,12.17
2018-09-23T07:22:06.799Z,12.13
2018-09-23T07:23:06.819Z,12.12
2018-09-23T07:24:06.972Z,12.15
2018-09-23T07:25:06.856Z,12.18
2018-09-23T07:26:07.083Z,12.12
2018-09-23T07:27:06.893Z,12.15
2018-09-23T07:28:06.914Z,12.10
2018-09-23T07:29:06.963Z,12.10
2018-09-23T07:30:07.021Z,12.15
2018-09-23T07:31:06.970Z,12.12
2018-09-23T07:32:06.989Z,12.18
2018-09-23T07:33:07.007Z,12.22
2018-09-23T07:34:07.029Z,12.17
2018-09-23T07:35:07.045Z,12.24
2018-09-23T07:36:07.064Z,12.32
2018-09-23T07:37:07.144Z,12.28
2018-09-23T07:38:07.100Z,12.27
2018-09-23T07:39:07.119Z,12.29
2018-09-23T07:40:07.138Z,12.27
2018-09-23T07:41:07.159Z,12.27
2018-09-23T07:42:07.177Z,12.28
2018-09-23T07:43:07.197Z,12.32
2018-09-23T07:44:07.214Z,12.24
2018-09-23T07:45:07.233Z,12.25
2018-09-23T07:46:07.252Z,12.36
2018-09-23T07:47:07.271Z,12.42
2018-09-23T07:48:07.334Z,12.28
2018-09-23T07:49:07.311Z,12.37
2018-09-23T07:50:07.328Z,12.37
2018-09-23T07:51:07.349Z,12.50
2018-09-23T07:52:07.366Z,12.49
2018-09-23T07:53:07.388Z,12.47
2018-09-23T07:54:07.406Z,12.42
2018-09-23T07:55:07.425Z,12.39
2018-09-23T07:56:07.496Z,12.37
2018-09-23T07:57:07.463Z,12.36
2018-09-23T07:58:07.481Z,12.42
2018-09-23T07:59:07.500Z,12.42
2018-09-23T08:00:07.522Z,12.40
2018-09-23T08:01:07.537Z,12.40
2018-09-23T08:02:07.565Z,12.42
2018-09-23T08:03:07.578Z,12.42
2018-09-23T08:04:07.595Z,12.36
2018-09-23T08:05:07.616Z,12.39
2018-09-23T08:06:07.634Z,12.37
2018-09-23T08:07:07.653Z,12.43
2018-09-23T08:08:07.672Z,12.42
2018-09-23T08:09:07.691Z,12.39
2018-09-23T08:10:07.712Z,12.47
2018-09-23T08:11:07.730Z,12.55
2018-09-23T08:12:07.749Z,12.53
2018-09-23T08:13:07.905Z,12.62
2018-09-23T08:14:08.071Z,12.61
2018-09-23T08:15:07.901Z,12.64
2018-09-23T08:16:07.824Z,12.61
2018-09-23T08:17:07.859Z,12.68
2018-09-23T08:18:07.864Z,12.62
2018-09-23T08:19:07.932Z,12.53
2018-09-23T08:20:07.959Z,12.54
2018-09-23T08:21:07.954Z,12.46
2018-09-23T08:22:07.941Z,12.57
2018-09-23T08:23:07.978Z,12.67
2018-09-23T08:24:07.980Z,12.58
2018-09-23T08:25:08.004Z,12.65
2018-09-23T08:26:08.018Z,12.62
2018-09-23T08:27:08.040Z,12.62
2018-09-23T08:28:08.055Z,12.61
2018-09-23T08:29:08.410Z,12.79
2018-09-23T08:30:08.096Z,12.75
2018-09-23T08:31:08.115Z,12.79
2018-09-23T08:32:08.130Z,12.87
2018-09-23T08:33:08.165Z,12.79
2018-09-23T08:34:08.170Z,12.82
2018-09-23T08:35:08.188Z,12.79
2018-09-23T08:36:08.212Z,12.83
2018-09-23T08:37:08.229Z,12.85
2018-09-23T08:38:08.248Z,12.80
2018-09-23T08:39:08.268Z,12.90
2018-09-23T08:40:08.288Z,12.97
2018-09-23T08:41:08.308Z,12.93
2018-09-23T08:42:08.323Z,13.01
2018-09-23T08:43:08.386Z,12.97
2018-09-23T08:44:08.363Z,13.00
2018-09-23T08:45:08.381Z,13.05
2018-09-23T08:46:08.406Z,12.91
2018-09-23T08:47:08.422Z,12.85
2018-09-23T08:48:08.497Z,12.82
2018-09-23T08:49:08.460Z,12.73
2018-09-23T08:50:08.481Z,12.83
2018-09-23T08:51:08.500Z,12.82
2018-09-23T08:52:08.575Z,12.76
2018-09-23T08:53:08.538Z,12.78
2018-09-23T08:54:08.558Z,12.83
2018-09-23T08:55:08.578Z,12.80
2018-09-23T08:56:08.598Z,12.76
2018-09-23T08:57:08.614Z,12.78
2018-09-23T08:58:08.635Z,12.73
2018-09-23T08:59:08.653Z,12.72
2018-09-23T09:00:08.675Z,12.73
2018-09-23T09:01:08.696Z,12.73
2018-09-23T09:02:08.713Z,12.85
2018-09-23T09:03:08.732Z,12.90
2018-09-23T09:04:08.782Z,12.95
2018-09-23T09:05:08.771Z,13.11
2018-09-23T09:06:08.787Z,13.08
2018-09-23T09:07:08.810Z,13.04
2018-09-23T09:08:08.829Z,12.97
2018-09-23T09:09:08.885Z,12.98
2018-09-23T09:10:08.865Z,13.03
2018-09-23T09:11:08.885Z,13.09
2018-09-23T09:12:08.904Z,13.12
2018-09-23T09:13:08.925Z,13.01
2018-09-23T09:14:08.942Z,13.05
2018-09-23T09:15:08.965Z,12.97
2018-09-23T09:16:08.983Z,12.93
2018-09-23T09:17:09.001Z,12.93
2018-09-23T09:18:09.081Z,13.01
2018-09-23T09:19:09.041Z,13.08
2018-09-23T09:20:09.059Z,12.98
2018-09-23T09:21:09.080Z,12.93
2018-09-23T09:22:09.097Z,12.90
2018-09-23T09:23:09.117Z,12.87
2018-09-23T09:24:09.138Z,12.93
2018-09-23T09:25:09.157Z,12.87
2018-09-23T09:26:09.177Z,12.85
2018-09-23T09:27:09.238Z,12.82
2018-09-23T09:28:09.218Z,12.80
2018-09-23T09:29:09.232Z,12.80
2018-09-23T09:30:09.254Z,12.82
2018-09-23T09:31:09.271Z,12.82
2018-09-23T09:32:09.292Z,12.83
2018-09-23T09:33:09.314Z,12.86
2018-09-23T09:34:09.329Z,12.91
2018-09-23T09:35:09.352Z,12.86
2018-09-23T09:36:09.371Z,12.94
2018-09-23T09:37:09.393Z,13.11
2018-09-23T09:38:09.406Z,12.95
2018-09-23T09:39:09.432Z,12.97
2018-09-23T09:40:09.450Z,12.95
2018-09-23T09:41:09.466Z,12.98
2018-09-23T09:42:09.484Z,12.94
2018-09-23T09:43:09.506Z,13.00
2018-09-23T09:44:09.544Z,12.83
2018-09-23T09:45:09.544Z,12.78
2018-09-23T09:46:09.562Z,12.76
2018-09-23T09:47:09.583Z,12.78
2018-09-23T09:48:09.603Z,12.79
2018-09-23T09:49:09.625Z,12.87
2018-09-23T09:50:09.641Z,12.91
2018-09-23T09:51:09.664Z,12.82
2018-09-23T09:52:09.678Z,12.76
2018-09-23T09:53:09.698Z,12.64
2018-09-23T09:54:09.726Z,12.72
2018-09-23T09:55:09.738Z,12.79
2018-09-23T09:56:09.755Z,12.72
2018-09-23T09:57:09.773Z,12.73
2018-09-23T09:58:09.796Z,12.78
2018-09-23T09:59:09.812Z,12.64
2018-09-23T10:00:09.831Z,12.78
2018-09-23T10:01:09.850Z,12.75
2018-09-23T10:02:09.872Z,12.79
2018-09-23T10:03:09.892Z,12.68
2018-09-23T10:04:09.975Z,12.68
2018-09-23T10:05:09.931Z,12.78
2018-09-23T10:06:09.980Z,12.78
2018-09-23T10:07:09.966Z,12.72
2018-09-23T10:08:10.237Z,12.75
2018-09-23T10:09:10.007Z,12.79
2018-09-23T10:10:10.026Z,12.79
2018-09-23T10:11:10.042Z,12.67
2018-09-23T10:12:10.062Z,12.76
2018-09-23T10:13:10.081Z,12.67
2018-09-23T10:14:10.101Z,12.79
2018-09-23T10:15:10.122Z,12.87
2018-09-23T10:16:10.140Z,12.85
2018-09-23T10:17:10.157Z,12.85
2018-09-23T10:18:10.179Z,12.87
2018-09-23T10:19:10.201Z,12.82
2018-09-23T10:20:10.218Z,12.70
2018-09-23T10:21:10.235Z,12.76
2018-09-23T10:22:10.253Z,12.78
2018-09-23T10:23:10.309Z,12.73
2018-09-23T10:24:10.294Z,12.83
2018-09-23T10:25:10.313Z,12.85
2018-09-23T10:26:10.330Z,12.91
2018-09-23T10:27:10.349Z,12.85
2018-09-23T10:28:10.371Z,12.82
2018-09-23T10:29:10.389Z,12.85
2018-09-23T10:30:10.406Z,12.86
2018-09-23T10:31:10.523Z,12.80
2018-09-23T10:32:10.483Z,12.65
2018-09-23T10:33:10.463Z,12.68
2018-09-23T10:34:10.483Z,12.70
2018-09-23T10:35:10.505Z,12.62
2018-09-23T10:36:10.585Z,12.53
2018-09-23T10:37:10.542Z,12.55
2018-09-23T10:38:10.560Z,12.54
2018-09-23T10:39:10.581Z,12.55
2018-09-23T10:40:10.598Z,12.58
2018-09-23T10:41:10.670Z,12.54
2018-09-23T10:42:10.641Z,12.47
2018-09-23T10:43:10.657Z,12.55
2018-09-23T10:44:10.675Z,12.50
2018-09-23T10:45:10.694Z,12.35
2018-09-23T10:46:10.711Z,12.39
2018-09-23T10:47:10.730Z,12.46
2018-09-23T10:48:10.753Z,12.31
2018-09-23T10:49:10.767Z,12.40
2018-09-23T10:50:10.788Z,12.37
2018-09-23T10:51:10.805Z,12.35
2018-09-23T10:52:10.824Z,12.27
2018-09-23T10:53:10.843Z,12.36
2018-09-23T10:54:10.863Z,12.27
2018-09-23T10:55:10.882Z,12.25
2018-09-23T10:56:11.150Z,12.20
2018-09-23T10:57:10.918Z,12.18
2018-09-23T10:58:10.938Z,12.22
2018-09-23T10:59:10.956Z,12.21
2018-09-23T11:00:10.975Z,12.15
2018-09-23T11:01:10.993Z,12.07
2018-09-23T11:02:11.013Z,12.10
2018-09-23T11:03:11.029Z,12.17
2018-09-23T11:04:11.078Z,12.10
2018-09-23T11:05:11.069Z,12.09
2018-09-23T11:06:11.088Z,12.09
2018-09-23T11:07:11.105Z,12.15
2018-09-23T11:08:11.157Z,12.17
2018-09-23T11:09:11.141Z,12.13
2018-09-23T11:10:11.165Z,12.10
2018-09-23T11:11:11.180Z,12.15
2018-09-23T11:12:11.200Z,12.09
2018-09-23T11:13:11.215Z,12.09
2018-09-23T11:14:11.237Z,12.09
2018-09-23T11:15:11.304Z,12.12
2018-09-23T11:16:11.272Z,12.06
2018-09-23T11:17:11.290Z,12.12
2018-09-23T11:18:11.310Z,12.04
2018-09-23T11:19:11.329Z,12.13
2018-09-23T11:20:11.349Z,12.13
2018-09-23T11:21:11.366Z,11.94
2018-09-23T11:22:11.385Z,12.00
2018-09-23T11:23:11.431Z,11.99
2018-09-23T11:24:11.420Z,11.90
2018-09-23T11:25:11.439Z,11.95
2018-09-23T11:26:11.459Z,11.99
2018-09-23T11:27:11.477Z,11.95
2018-09-23T11:28:11.496Z,12.02
2018-09-23T11:29:11.513Z,11.99
2018-09-23T11:30:11.534Z,11.94
2018-09-23T11:31:11.553Z,11.94
2018-09-23T11:32:11.568Z,11.95
2018-09-23T11:33:11.585Z,11.97
2018-09-23T11:34:11.606Z,11.94
2018-09-23T11:35:11.623Z,11.90
2018-09-23T11:36:11.643Z,11.99
2018-09-23T11:37:11.660Z,11.97
2018-09-23T11:38:11.680Z,11.91
2018-09-23T11:39:11.697Z,11.97
2018-09-23T11:40:11.719Z,12.02
2018-09-23T11:41:11.738Z,12.09
2018-09-23T11:42:11.751Z,12.09
2018-09-23T11:43:11.774Z,12.10
2018-09-23T11:44:11.791Z,12.02
2018-09-23T11:45:11.807Z,11.99
2018-09-23T11:46:11.826Z,11.94
2018-09-23T11:47:11.845Z,12.18
2018-09-23T11:48:11.878Z,12.07
2018-09-23T11:49:11.886Z,12.12
2018-09-23T11:50:11.902Z,11.99
2018-09-23T11:51:11.920Z,11.84
2018-09-23T11:52:11.993Z,11.78
2018-09-23T11:53:11.957Z,11.87
2018-09-23T11:54:11.979Z,11.95
2018-09-23T11:55:11.993Z,12.00
2018-09-23T11:56:12.012Z,11.99
2018-09-23T11:57:12.032Z,11.91
2018-09-23T11:58:12.048Z,11.84
2018-09-23T11:59:12.068Z,11.72
2018-09-23T12:00:12.090Z,11.81
2018-09-23T12:01:12.105Z,11.66
2018-09-23T12:02:12.178Z,11.60
2018-09-23T12:03:12.478Z,11.63
2018-09-23T12:04:12.159Z,11.66
2018-09-23T12:05:12.183Z,11.52
2018-09-23T12:06:12.197Z,11.52
2018-09-23T12:07:12.219Z,11.52
2018-09-23T12:08:12.235Z,11.57
2018-09-23T12:09:12.251Z,11.63
2018-09-23T12:10:12.308Z,11.63
2018-09-23T12:11:12.628Z,11.65
2018-09-23T12:12:12.510Z,11.60
2018-09-23T12:13:12.326Z,11.59
2018-09-23T12:14:12.349Z,11.60
2018-09-23T12:15:12.364Z,11.65
2018-09-23T12:16:12.409Z,11.51
2018-09-23T12:17:12.396Z,11.51
2018-09-23T12:18:12.417Z,11.48
2018-09-23T12:19:12.433Z,11.54
2018-09-23T12:20:12.451Z,11.59
2018-09-23T12:21:12.471Z,11.59
2018-09-23T12:22:12.489Z,11.54
2018-09-23T12:23:12.509Z,11.51
2018-09-23T12:24:12.527Z,11.55
2018-09-23T12:25:12.882Z,11.55
2018-09-23T12:26:12.563Z,11.60
2018-09-23T12:27:12.582Z,11.50
2018-09-23T12:28:12.597Z,11.59
2018-09-23T12:29:12.617Z,11.63
2018-09-23T12:30:12.634Z,11.63
2018-09-23T12:31:12.651Z,11.59
2018-09-23T12:32:12.672Z,11.52
2018-09-23T12:33:12.768Z,11.52
2018-09-23T12:34:12.719Z,11.52
2018-09-23T12:35:12.727Z,11.54
2018-09-23T12:36:12.746Z,11.51
2018-09-23T12:37:12.761Z,11.51
2018-09-23T12:38:12.780Z,11.47
2018-09-23T12:39:12.799Z,11.52
2018-09-23T12:40:12.817Z,11.47
2018-09-23T12:41:12.834Z,11.48
2018-09-23T12:42:12.853Z,11.51
2018-09-23T12:43:12.869Z,11.48
2018-09-23T12:44:12.890Z,11.57
2018-09-23T12:45:12.907Z,11.60
2018-09-23T12:46:13.054Z,11.75
2018-09-23T12:47:12.949Z,11.72
2018-09-23T12:48:12.960Z,11.70
2018-09-23T12:49:12.978Z,11.63
2018-09-23T12:50:12.998Z,11.60
2018-09-23T12:51:13.016Z,11.65
2018-09-23T12:52:13.033Z,11.66
2018-09-23T12:53:13.051Z,11.68